sensor_id;sensor_type;location;lat;lon;timestamp;pressure;altitude;pressure_sealevel;temperature;humidity
61035;BME280;46916;40.564;-7.958;2023-06-19T00:01:20;96950.38;;;20.46;75.22
61035;BME280;46916;40.564;-7.958;2023-06-19T00:03:40;96947.09;;;20.44;75.35
61035;BME280;46916;40.564;-7.958;2023-06-19T00:05:40;96942.19;;;20.41;75.17
61035;BME280;46916;40.564;-7.958;2023-06-19T00:07:41;96939.09;;;20.44;75.47
61035;BME280;46916;40.564;-7.958;2023-06-19T00:10:01;96947.31;;;20.43;75.62
61035;BME280;46916;40.564;-7.958;2023-06-19T00:12:01;96945.47;;;20.43;75.71
61035;BME280;46916;40.564;-7.958;2023-06-19T00:14:23;96942.19;;;20.41;75.58
61035;BME280;46916;40.564;-7.958;2023-06-19T00:16:24;96947.69;;;20.40;75.95
61035;BME280;46916;40.564;-7.958;2023-06-19T00:18:26;96933.81;;;20.38;75.54
61035;BME280;46916;40.564;-7.958;2023-06-19T00:20:27;96935.66;;;20.37;75.88
61035;BME280;46916;40.564;-7.958;2023-06-19T00:22:27;96932.56;;;20.34;75.89
61035;BME280;46916;40.564;-7.958;2023-06-19T00:24:28;96929.28;;;20.32;75.87
61035;BME280;46916;40.564;-7.958;2023-06-19T00:26:29;96920.69;;;20.29;76.11
61035;BME280;46916;40.564;-7.958;2023-06-19T00:28:30;96923.38;;;20.29;76.28
61035;BME280;46916;40.564;-7.958;2023-06-19T00:30:31;96920.69;;;20.29;76.40
61035;BME280;46916;40.564;-7.958;2023-06-19T00:32:33;96922.53;;;20.29;76.11
61035;BME280;46916;40.564;-7.958;2023-06-19T00:34:41;96913.13;;;20.26;76.44
61035;BME280;46916;40.564;-7.958;2023-06-19T00:36:43;96918.22;;;20.28;76.11
61035;BME280;46916;40.564;-7.958;2023-06-19T00:38:44;96910.47;;;20.26;76.43
61035;BME280;46916;40.564;-7.958;2023-06-19T00:40:44;96909.66;;;20.26;76.18
61035;BME280;46916;40.564;-7.958;2023-06-19T00:42:47;96907.19;;;20.24;76.75
61035;BME280;46916;40.564;-7.958;2023-06-19T00:45:06;96912.50;;;20.24;76.43
61035;BME280;46916;40.564;-7.958;2023-06-19T00:47:07;96900.22;;;20.23;76.48
61035;BME280;46916;40.564;-7.958;2023-06-19T00:49:08;96896.53;;;20.24;76.48
61035;BME280;46916;40.564;-7.958;2023-06-19T00:51:09;96898.38;;;20.24;76.60
61035;BME280;46916;40.564;-7.958;2023-06-19T00:53:10;96894.09;;;20.23;76.19
61035;BME280;46916;40.564;-7.958;2023-06-19T00:55:11;96890.63;;;20.22;76.41
61035;BME280;46916;40.564;-7.958;2023-06-19T00:57:12;96890.00;;;20.20;76.47
61035;BME280;46916;40.564;-7.958;2023-06-19T00:59:18;96883.84;;;20.20;76.21
61035;BME280;46916;40.564;-7.958;2023-06-19T01:01:20;96887.16;;;20.22;76.18
61035;BME280;46916;40.564;-7.958;2023-06-19T01:03:21;96879.19;;;20.22;76.34
61035;BME280;46916;40.564;-7.958;2023-06-19T01:05:23;96879.34;;;20.20;76.57
61035;BME280;46916;40.564;-7.958;2023-06-19T01:09:52;96888.78;;;20.23;76.25
61035;BME280;46916;40.564;-7.958;2023-06-19T01:12:08;96886.13;;;20.23;76.42
61035;BME280;46916;40.564;-7.958;2023-06-19T01:14:14;96878.34;;;20.21;75.98
61035;BME280;46916;40.564;-7.958;2023-06-19T01:16:18;96876.69;;;20.20;76.09
61035;BME280;46916;40.564;-7.958;2023-06-19T01:18:19;96866.50;;;20.17;76.03
61035;BME280;46916;40.564;-7.958;2023-06-19T01:20:21;96883.84;;;20.20;76.38
61035;BME280;46916;40.564;-7.958;2023-06-19T01:22:31;96890.84;;;20.21;76.04
61035;BME280;46916;40.564;-7.958;2023-06-19T01:24:34;96888.38;;;20.19;76.09
61035;BME280;46916;40.564;-7.958;2023-06-19T01:26:35;96888.75;;;20.16;76.19
61035;BME280;46916;40.564;-7.958;2023-06-19T01:28:40;96890.22;;;20.19;75.87
61035;BME280;46916;40.564;-7.958;2023-06-19T01:30:43;96886.94;;;20.17;75.78
61035;BME280;46916;40.564;-7.958;2023-06-19T01:33:09;96882.03;;;20.14;76.16
61035;BME280;46916;40.564;-7.958;2023-06-19T01:35:12;96873.63;;;20.10;76.39
61035;BME280;46916;40.564;-7.958;2023-06-19T01:37:14;96874.44;;;20.11;76.11
61035;BME280;46916;40.564;-7.958;2023-06-19T01:39:17;96863.00;;;20.10;76.04
61035;BME280;46916;40.564;-7.958;2023-06-19T01:41:19;96862.19;;;20.10;76.19
61035;BME280;46916;40.564;-7.958;2023-06-19T01:43:20;96864.63;;;20.11;76.53
61035;BME280;46916;40.564;-7.958;2023-06-19T01:45:22;96865.44;;;20.12;76.46
61035;BME280;46916;40.564;-7.958;2023-06-19T01:47:22;96858.50;;;20.11;76.47
61035;BME280;46916;40.564;-7.958;2023-06-19T01:49:23;96852.16;;;20.12;76.42
61035;BME280;46916;40.564;-7.958;2023-06-19T01:51:24;96851.16;;;20.13;76.09
61035;BME280;46916;40.564;-7.958;2023-06-19T01:53:24;96855.44;;;20.14;76.23
61035;BME280;46916;40.564;-7.958;2023-06-19T01:55:25;96842.34;;;20.12;76.28
61035;BME280;46916;40.564;-7.958;2023-06-19T01:57:26;96845.63;;;20.14;76.27
61035;BME280;46916;40.564;-7.958;2023-06-19T01:59:27;96850.94;;;20.14;76.16
61035;BME280;46916;40.564;-7.958;2023-06-19T02:01:28;96846.66;;;20.13;76.06
61035;BME280;46916;40.564;-7.958;2023-06-19T02:03:29;96840.31;;;20.14;76.34
61035;BME280;46916;40.564;-7.958;2023-06-19T02:05:30;96838.47;;;20.15;76.19
61035;BME280;46916;40.564;-7.958;2023-06-19T02:07:31;96836.03;;;20.13;76.16
61035;BME280;46916;40.564;-7.958;2023-06-19T02:09:32;96833.56;;;20.12;76.25
61035;BME280;46916;40.564;-7.958;2023-06-19T02:11:33;96832.53;;;20.06;76.61
61035;BME280;46916;40.564;-7.958;2023-06-19T02:13:33;96830.28;;;20.03;76.44
61035;BME280;46916;40.564;-7.958;2023-06-19T02:15:34;96828.22;;;19.98;76.78
61035;BME280;46916;40.564;-7.958;2023-06-19T02:17:35;96822.91;;;19.98;76.86
61035;BME280;46916;40.564;-7.958;2023-06-19T02:19:37;96828.44;;;19.97;77.15
61035;BME280;46916;40.564;-7.958;2023-06-19T02:21:38;96819.84;;;19.95;77.17
61035;BME280;46916;40.564;-7.958;2023-06-19T02:23:39;96819.44;;;19.91;77.00
61035;BME280;46916;40.564;-7.958;2023-06-19T02:25:41;96829.88;;;19.93;77.21
61035;BME280;46916;40.564;-7.958;2023-06-19T02:27:43;96842.94;;;19.94;77.22
61035;BME280;46916;40.564;-7.958;2023-06-19T02:29:43;96833.94;;;19.95;76.93
61035;BME280;46916;40.564;-7.958;2023-06-19T02:31:44;96828.44;;;19.90;77.25
61035;BME280;46916;40.564;-7.958;2023-06-19T02:33:45;96820.88;;;19.94;77.04
61035;BME280;46916;40.564;-7.958;2023-06-19T02:35:46;96811.28;;;19.93;77.33
61035;BME280;46916;40.564;-7.958;2023-06-19T02:37:46;96809.84;;;19.90;77.26
61035;BME280;46916;40.564;-7.958;2023-06-19T02:39:47;96803.50;;;19.91;77.38
61035;BME280;46916;40.564;-7.958;2023-06-19T02:41:48;96791.44;;;19.89;77.58
61035;BME280;46916;40.564;-7.958;2023-06-19T02:43:49;96792.66;;;19.86;77.68
61035;BME280;46916;40.564;-7.958;2023-06-19T02:45:50;96780.22;;;19.80;78.02
61035;BME280;46916;40.564;-7.958;2023-06-19T02:47:50;96783.44;;;19.75;78.35
61035;BME280;46916;40.564;-7.958;2023-06-19T02:49:52;96781.00;;;19.74;78.46
61035;BME280;46916;40.564;-7.958;2023-06-19T02:51:53;96781.63;;;19.76;78.27
61035;BME280;46916;40.564;-7.958;2023-06-19T02:53:54;96782.88;;;19.80;78.22
61035;BME280;46916;40.564;-7.958;2023-06-19T02:55:56;96782.00;;;19.79;78.25
61035;BME280;46916;40.564;-7.958;2023-06-19T02:57:56;96786.50;;;19.79;78.08
61035;BME280;46916;40.564;-7.958;2023-06-19T02:59:57;96777.56;;;19.80;78.04
61035;BME280;46916;40.564;-7.958;2023-06-19T03:01:58;96783.25;;;19.84;78.01
61035;BME280;46916;40.564;-7.958;2023-06-19T03:03:58;96785.09;;;19.83;78.06
61035;BME280;46916;40.564;-7.958;2023-06-19T03:05:59;96780.81;;;19.82;77.95
61035;BME280;46916;40.564;-7.958;2023-06-19T03:08:01;96775.88;;;19.79;78.35
61035;BME280;46916;40.564;-7.958;2023-06-19T03:10:01;96781.03;;;19.81;78.08
61035;BME280;46916;40.564;-7.958;2023-06-19T03:12:04;96781.19;;;19.79;78.51
61035;BME280;46916;40.564;-7.958;2023-06-19T03:14:05;96782.88;;;19.80;78.27
61035;BME280;46916;40.564;-7.958;2023-06-19T03:16:08;96779.78;;;19.76;78.56
61035;BME280;46916;40.564;-7.958;2023-06-19T03:18:09;96779.56;;;19.71;78.86
61035;BME280;46916;40.564;-7.958;2023-06-19T03:20:13;96782.22;;;19.71;78.84
61035;BME280;46916;40.564;-7.958;2023-06-19T03:22:20;96773.00;;;19.67;79.32
61035;BME280;46916;40.564;-7.958;2023-06-19T03:24:21;96763.22;;;19.68;79.20
61035;BME280;46916;40.564;-7.958;2023-06-19T03:26:23;96768.53;;;19.68;79.29
61035;BME280;46916;40.564;-7.958;2023-06-19T03:28:25;96767.53;;;19.69;79.14
61035;BME280;46916;40.564;-7.958;2023-06-19T03:30:27;96762.59;;;19.66;79.30
61035;BME280;46916;40.564;-7.958;2023-06-19T03:32:28;96757.91;;;19.61;79.54
61035;BME280;46916;40.564;-7.958;2023-06-19T03:34:29;96754.59;;;19.59;79.67
61035;BME280;46916;40.564;-7.958;2023-06-19T03:36:32;96751.75;;;19.61;79.92
61035;BME280;46916;40.564;-7.958;2023-06-19T03:38:40;96756.25;;;19.67;79.55
61035;BME280;46916;40.564;-7.958;2023-06-19T03:40:42;96750.56;;;19.70;79.72
61035;BME280;46916;40.564;-7.958;2023-06-19T03:42:46;96755.66;;;19.71;79.56
61035;BME280;46916;40.564;-7.958;2023-06-19T03:44:47;96757.09;;;19.74;79.40
61035;BME280;46916;40.564;-7.958;2023-06-19T03:46:48;96750.75;;;19.75;79.26
61035;BME280;46916;40.564;-7.958;2023-06-19T03:48:50;96743.22;;;19.72;79.60
61035;BME280;46916;40.564;-7.958;2023-06-19T03:50:51;96748.72;;;19.70;79.65
61035;BME280;46916;40.564;-7.958;2023-06-19T03:52:52;96751.59;;;19.69;79.73
61035;BME280;46916;40.564;-7.958;2023-06-19T03:54:52;96756.09;;;19.68;79.53
61035;BME280;46916;40.564;-7.958;2023-06-19T03:56:53;96755.66;;;19.71;79.44
61035;BME280;46916;40.564;-7.958;2023-06-19T03:58:53;96745.25;;;19.70;79.42
61035;BME280;46916;40.564;-7.958;2023-06-19T04:00:54;96740.13;;;19.68;79.68
61035;BME280;46916;40.564;-7.958;2023-06-19T04:02:55;96731.97;;;19.70;79.67
61035;BME280;46916;40.564;-7.958;2023-06-19T04:04:56;96735.81;;;19.67;79.70
61035;BME280;46916;40.564;-7.958;2023-06-19T04:06:57;96734.81;;;19.62;79.92
61035;BME280;46916;40.564;-7.958;2023-06-19T04:08:59;96735.41;;;19.57;79.99
61035;BME280;46916;40.564;-7.958;2023-06-19T04:11:00;96720.47;;;19.49;80.80
61035;BME280;46916;40.564;-7.958;2023-06-19T04:13:02;96724.16;;;19.48;80.69
61035;BME280;46916;40.564;-7.958;2023-06-19T04:15:05;96719.66;;;19.49;80.54
61035;BME280;46916;40.564;-7.958;2023-06-19T04:17:07;96734.97;;;19.47;80.71
61035;BME280;46916;40.564;-7.958;2023-06-19T04:19:08;96734.38;;;19.51;80.80
61035;BME280;46916;40.564;-7.958;2023-06-19T04:21:08;96732.09;;;19.55;80.58
61035;BME280;46916;40.564;-7.958;2023-06-19T04:23:09;96723.53;;;19.53;80.48
61035;BME280;46916;40.564;-7.958;2023-06-19T04:25:10;96729.88;;;19.59;80.61
61035;BME280;46916;40.564;-7.958;2023-06-19T04:27:11;96729.50;;;19.62;80.38
61035;BME280;46916;40.564;-7.958;2023-06-19T04:29:11;96733.78;;;19.63;80.11
61035;BME280;46916;40.564;-7.958;2023-06-19T04:31:17;96729.91;;;19.65;80.19
61035;BME280;46916;40.564;-7.958;2023-06-19T04:33:20;96722.75;;;19.66;79.82
61035;BME280;46916;40.564;-7.958;2023-06-19T04:35:21;96727.03;;;19.67;79.91
61035;BME280;46916;40.564;-7.958;2023-06-19T04:37:24;96725.19;;;19.67;79.64
61035;BME280;46916;40.564;-7.958;2023-06-19T04:39:24;96728.88;;;19.66;79.59
61035;BME280;46916;40.564;-7.958;2023-06-19T04:41:25;96719.28;;;19.65;79.64
61035;BME280;46916;40.564;-7.958;2023-06-19T04:43:26;96720.31;;;19.64;79.43
61035;BME280;46916;40.564;-7.958;2023-06-19T04:45:26;96714.38;;;19.62;79.27
61035;BME280;46916;40.564;-7.958;2023-06-19T04:47:27;96714.75;;;19.59;79.51
61035;BME280;46916;40.564;-7.958;2023-06-19T04:49:28;96716.59;;;19.59;79.46
61035;BME280;46916;40.564;-7.958;2023-06-19T04:51:34;96712.09;;;19.59;79.41
61035;BME280;46916;40.564;-7.958;2023-06-19T04:53:34;96715.59;;;19.60;79.58
61035;BME280;46916;40.564;-7.958;2023-06-19T04:55:35;96710.28;;;19.60;79.56
61035;BME280;46916;40.564;-7.958;2023-06-19T04:57:36;96725.19;;;19.61;79.47
61035;BME280;46916;40.564;-7.958;2023-06-19T04:59:37;96715.78;;;19.58;79.63
61035;BME280;46916;40.564;-7.958;2023-06-19T05:01:37;96718.44;;;19.58;79.74
61035;BME280;46916;40.564;-7.958;2023-06-19T05:03:42;96710.69;;;19.57;79.70
61035;BME280;46916;40.564;-7.958;2023-06-19T05:05:43;96712.53;;;19.56;79.58
61035;BME280;46916;40.564;-7.958;2023-06-19T05:07:44;96717.03;;;19.55;79.50
61035;BME280;46916;40.564;-7.958;2023-06-19T05:09:45;96714.97;;;19.58;79.64
61035;BME280;46916;40.564;-7.958;2023-06-19T05:11:46;96721.91;;;19.59;79.25
61035;BME280;46916;40.564;-7.958;2023-06-19T05:13:47;96718.44;;;19.58;79.38
61035;BME280;46916;40.564;-7.958;2023-06-19T05:15:47;96718.66;;;19.57;79.47
61035;BME280;46916;40.564;-7.958;2023-06-19T05:17:48;96721.09;;;19.51;79.38
61035;BME280;46916;40.564;-7.958;2023-06-19T05:19:49;96716.59;;;19.52;79.64
61035;BME280;46916;40.564;-7.958;2023-06-19T05:21:50;96715.78;;;19.51;79.43
61035;BME280;46916;40.564;-7.958;2023-06-19T05:23:51;96705.97;;;19.45;79.53
61035;BME280;46916;40.564;-7.958;2023-06-19T05:25:53;96712.50;;;19.43;79.51
61035;BME280;46916;40.564;-7.958;2023-06-19T05:27:53;96705.56;;;19.42;79.50
61035;BME280;46916;40.564;-7.958;2023-06-19T05:29:54;96711.28;;;19.45;79.60
61035;BME280;46916;40.564;-7.958;2023-06-19T05:31:55;96701.47;;;19.46;79.48
61035;BME280;46916;40.564;-7.958;2023-06-19T05:33:55;96708.03;;;19.43;79.35
61035;BME280;46916;40.564;-7.958;2023-06-19T05:35:56;96706.78;;;19.46;79.46
61035;BME280;46916;40.564;-7.958;2023-06-19T05:37:56;96707.59;;;19.46;79.48
61035;BME280;46916;40.564;-7.958;2023-06-19T05:39:57;96704.94;;;19.46;79.55
61035;BME280;46916;40.564;-7.958;2023-06-19T05:41:58;96700.66;;;19.45;79.44
61035;BME280;46916;40.564;-7.958;2023-06-19T05:43:59;96699.03;;;19.44;79.30
61035;BME280;46916;40.564;-7.958;2023-06-19T05:46:00;96701.47;;;19.46;79.57
61035;BME280;46916;40.564;-7.958;2023-06-19T05:48:02;96700.25;;;19.48;79.36
61035;BME280;46916;40.564;-7.958;2023-06-19T05:50:03;96699.22;;;19.49;79.46
61035;BME280;46916;40.564;-7.958;2023-06-19T05:52:04;96690.22;;;19.50;79.47
61035;BME280;46916;40.564;-7.958;2023-06-19T05:54:05;96700.84;;;19.50;79.17
61035;BME280;46916;40.564;-7.958;2023-06-19T05:56:06;96695.75;;;19.49;79.46
61035;BME280;46916;40.564;-7.958;2023-06-19T05:58:07;96696.56;;;19.49;79.25
61035;BME280;46916;40.564;-7.958;2023-06-19T06:00:08;96693.31;;;19.47;78.99
61035;BME280;46916;40.564;-7.958;2023-06-19T06:02:14;96687.16;;;19.47;79.13
61035;BME280;46916;40.564;-7.958;2023-06-19T06:04:15;96690.03;;;19.52;78.64
61035;BME280;46916;40.564;-7.958;2023-06-19T06:06:16;96685.75;;;19.58;78.36
61035;BME280;46916;40.564;-7.958;2023-06-19T06:08:17;96695.97;;;19.61;78.01
61035;BME280;46916;40.564;-7.958;2023-06-19T06:10:19;96697.22;;;19.65;77.74
61035;BME280;46916;40.564;-7.958;2023-06-19T06:12:20;96697.81;;;19.67;77.67
61035;BME280;46916;40.564;-7.958;2023-06-19T06:14:21;96702.72;;;19.70;77.75
61035;BME280;46916;40.564;-7.958;2023-06-19T06:16:21;96702.13;;;19.68;77.91
61035;BME280;46916;40.564;-7.958;2023-06-19T06:18:22;96697.63;;;19.62;78.42
61035;BME280;46916;40.564;-7.958;2023-06-19T06:20:23;96703.94;;;19.61;78.91
61035;BME280;46916;40.564;-7.958;2023-06-19T06:22:23;96703.31;;;19.59;79.02
61035;BME280;46916;40.564;-7.958;2023-06-19T06:24:24;96692.28;;;19.55;79.05
61035;BME280;46916;40.564;-7.958;2023-06-19T06:26:25;96698.63;;;19.47;79.26
61035;BME280;46916;40.564;-7.958;2023-06-19T06:28:28;96700.25;;;19.48;79.81
61035;BME280;46916;40.564;-7.958;2023-06-19T06:30:29;96703.94;;;19.54;79.68
61035;BME280;46916;40.564;-7.958;2023-06-19T06:32:29;96704.34;;;19.58;79.33
61035;BME280;46916;40.564;-7.958;2023-06-19T06:34:32;96704.97;;;19.60;79.36
61035;BME280;46916;40.564;-7.958;2023-06-19T06:36:51;96708.88;;;19.64;78.85
61035;BME280;46916;40.564;-7.958;2023-06-19T06:38:52;96715.59;;;19.66;78.85
61035;BME280;46916;40.564;-7.958;2023-06-19T06:40:52;96703.13;;;19.67;78.48
61035;BME280;46916;40.564;-7.958;2023-06-19T06:42:53;96709.66;;;19.71;77.99
61035;BME280;46916;40.564;-7.958;2023-06-19T06:44:54;96706.22;;;19.77;77.68
61035;BME280;46916;40.564;-7.958;2023-06-19T06:46:55;96712.13;;;19.86;77.48
61035;BME280;46916;40.564;-7.958;2023-06-19T06:48:55;96713.34;;;19.90;77.13
61035;BME280;46916;40.564;-7.958;2023-06-19T06:50:56;96716.19;;;19.95;77.36
61035;BME280;46916;40.564;-7.958;2023-06-19T06:53:01;96714.16;;;19.97;77.31
61035;BME280;46916;40.564;-7.958;2023-06-19T06:55:02;96713.16;;;19.98;77.06
61035;BME280;46916;40.564;-7.958;2023-06-19T06:57:03;96713.94;;;19.98;77.56
61035;BME280;46916;40.564;-7.958;2023-06-19T06:59:05;96715.00;;;19.97;77.83
61035;BME280;46916;40.564;-7.958;2023-06-19T07:01:06;96711.28;;;19.98;78.01
61035;BME280;46916;40.564;-7.958;2023-06-19T07:03:07;96717.03;;;20.02;78.36
61035;BME280;46916;40.564;-7.958;2023-06-19T07:05:08;96721.31;;;20.10;78.23
61035;BME280;46916;40.564;-7.958;2023-06-19T07:07:09;96720.91;;;20.13;78.28
61035;BME280;46916;40.564;-7.958;2023-06-19T07:09:10;96723.94;;;20.16;78.05
61035;BME280;46916;40.564;-7.958;2023-06-19T07:11:10;96731.09;;;20.22;77.50
61035;BME280;46916;40.564;-7.958;2023-06-19T07:13:11;96724.13;;;20.28;77.34
61035;BME280;46916;40.564;-7.958;2023-06-19T07:15:11;96730.47;;;20.34;76.75
61035;BME280;46916;40.564;-7.958;2023-06-19T07:17:12;96723.91;;;20.36;76.51
61035;BME280;46916;40.564;-7.958;2023-06-19T07:19:13;96722.69;;;20.32;76.54
61035;BME280;46916;40.564;-7.958;2023-06-19T07:21:14;96717.38;;;20.32;76.70
61035;BME280;46916;40.564;-7.958;2023-06-19T07:23:15;96718.19;;;20.33;76.71
61035;BME280;46916;40.564;-7.958;2023-06-19T07:25:16;96717.94;;;20.41;76.95
61035;BME280;46916;40.564;-7.958;2023-06-19T07:27:16;96726.75;;;20.55;76.99
61035;BME280;46916;40.564;-7.958;2023-06-19T07:29:17;96719.75;;;20.67;76.46
61035;BME280;46916;40.564;-7.958;2023-06-19T07:31:18;96734.66;;;20.74;75.87
61035;BME280;46916;40.564;-7.958;2023-06-19T07:33:18;96726.06;;;20.79;75.06
61035;BME280;46916;40.564;-7.958;2023-06-19T07:35:19;96734.44;;;20.83;74.95
61035;BME280;46916;40.564;-7.958;2023-06-19T07:37:20;96737.28;;;20.88;75.67
61035;BME280;46916;40.564;-7.958;2023-06-19T07:39:21;96740.31;;;20.91;75.44
61035;BME280;46916;40.564;-7.958;2023-06-19T07:41:22;96734.59;;;20.94;75.75
61035;BME280;46916;40.564;-7.958;2023-06-19T07:43:25;96747.03;;;21.00;75.24
61035;BME280;46916;40.564;-7.958;2023-06-19T07:45:26;96746.63;;;21.03;75.52
61035;BME280;46916;40.564;-7.958;2023-06-19T07:47:27;96750.50;;;21.08;75.18
61035;BME280;46916;40.564;-7.958;2023-06-19T07:49:28;96737.56;;;21.11;74.86
61035;BME280;46916;40.564;-7.958;2023-06-19T07:51:28;96741.22;;;21.17;74.84
61035;BME280;46916;40.564;-7.958;2023-06-19T07:53:29;96737.09;;;21.21;74.42
61035;BME280;46916;40.564;-7.958;2023-06-19T07:55:30;96745.25;;;21.26;74.19
61035;BME280;46916;40.564;-7.958;2023-06-19T07:57:30;96740.31;;;21.30;73.70
61035;BME280;46916;40.564;-7.958;2023-06-19T07:59:31;96729.47;;;21.31;73.73
61035;BME280;46916;40.564;-7.958;2023-06-19T08:01:32;96730.25;;;21.38;73.23
61035;BME280;46916;40.564;-7.958;2023-06-19T08:03:33;96729.25;;;21.39;73.36
61035;BME280;46916;40.564;-7.958;2023-06-19T08:05:33;96732.06;;;21.44;73.34
61035;BME280;46916;40.564;-7.958;2023-06-19T08:07:35;96726.53;;;21.46;73.41
61035;BME280;46916;40.564;-7.958;2023-06-19T08:09:35;96730.63;;;21.48;73.39
61035;BME280;46916;40.564;-7.958;2023-06-19T08:11:36;96730.53;;;21.55;73.57
61035;BME280;46916;40.564;-7.958;2023-06-19T08:13:37;96721.75;;;21.55;73.04
61035;BME280;46916;40.564;-7.958;2023-06-19T08:15:38;96722.34;;;21.57;73.06
61035;BME280;46916;40.564;-7.958;2023-06-19T08:17:39;96718.44;;;21.59;72.70
61035;BME280;46916;40.564;-7.958;2023-06-19T08:19:40;96720.91;;;21.61;72.37
61035;BME280;46916;40.564;-7.958;2023-06-19T08:21:43;96728.47;;;21.64;72.81
61035;BME280;46916;40.564;-7.958;2023-06-19T08:23:43;96731.47;;;21.67;72.75
61035;BME280;46916;40.564;-7.958;2023-06-19T08:25:44;96730.47;;;21.68;71.84
61035;BME280;46916;40.564;-7.958;2023-06-19T08:27:45;96728.63;;;21.69;71.85
61035;BME280;46916;40.564;-7.958;2023-06-19T08:29:45;96739.28;;;21.69;71.26
61035;BME280;46916;40.564;-7.958;2023-06-19T08:31:46;96731.75;;;21.59;70.88
61035;BME280;46916;40.564;-7.958;2023-06-19T08:33:47;96725.84;;;21.57;71.68
61035;BME280;46916;40.564;-7.958;2023-06-19T08:35:51;96721.16;;;21.52;71.30
61035;BME280;46916;40.564;-7.958;2023-06-19T08:37:51;96715.94;;;21.39;71.13
61035;BME280;46916;40.564;-7.958;2023-06-19T08:39:52;96723.53;;;21.29;71.53
61035;BME280;46916;40.564;-7.958;2023-06-19T08:41:53;96720.28;;;21.27;71.50
61035;BME280;46916;40.564;-7.958;2023-06-19T08:43:54;96720.63;;;21.31;71.03
61035;BME280;46916;40.564;-7.958;2023-06-19T08:46:09;96712.41;;;21.39;71.16
61035;BME280;46916;40.564;-7.958;2023-06-19T08:48:13;96721.84;;;21.41;71.11
61035;BME280;46916;40.564;-7.958;2023-06-19T08:50:19;96717.16;;;21.37;70.72
61035;BME280;46916;40.564;-7.958;2023-06-19T08:52:20;96712.06;;;21.35;70.42
61035;BME280;46916;40.564;-7.958;2023-06-19T08:54:20;96714.13;;;21.26;69.61
61035;BME280;46916;40.564;-7.958;2023-06-19T08:56:21;96716.34;;;21.30;70.50
61035;BME280;46916;40.564;-7.958;2023-06-19T08:58:23;96714.50;;;21.37;70.56
61035;BME280;46916;40.564;-7.958;2023-06-19T09:00:25;96720.38;;;21.45;70.15
61035;BME280;46916;40.564;-7.958;2023-06-19T09:02:37;96725.44;;;21.54;70.31
61035;BME280;46916;40.564;-7.958;2023-06-19T09:04:56;96726.88;;;21.56;69.39
61035;BME280;46916;40.564;-7.958;2023-06-19T09:06:59;96725.03;;;21.57;68.78
61035;BME280;46916;40.564;-7.958;2023-06-19T09:09:01;96722.34;;;21.57;68.43
61035;BME280;46916;40.564;-7.958;2023-06-19T09:11:04;96720.13;;;21.54;68.17
61035;BME280;46916;40.564;-7.958;2023-06-19T09:13:05;96717.03;;;21.57;68.24
61035;BME280;46916;40.564;-7.958;2023-06-19T09:15:14;96714.38;;;21.57;68.03
61035;BME280;46916;40.564;-7.958;2023-06-19T09:17:20;96711.63;;;21.63;68.25
61035;BME280;46916;40.564;-7.958;2023-06-19T09:19:23;96704.84;;;21.67;68.04
61035;BME280;46916;40.564;-7.958;2023-06-19T09:21:23;96710.53;;;21.71;68.20
61035;BME280;46916;40.564;-7.958;2023-06-19T09:23:25;96716.06;;;21.76;68.04
61035;BME280;46916;40.564;-7.958;2023-06-19T09:25:28;96720.94;;;21.79;68.48
61035;BME280;46916;40.564;-7.958;2023-06-19T09:27:33;96721.75;;;21.80;67.87
61035;BME280;46916;40.564;-7.958;2023-06-19T09:29:37;96714.38;;;21.82;68.12
61035;BME280;46916;40.564;-7.958;2023-06-19T09:31:38;96720.28;;;21.84;67.91
61035;BME280;46916;40.564;-7.958;2023-06-19T09:33:41;96718.22;;;21.86;67.58
61035;BME280;46916;40.564;-7.958;2023-06-19T09:35:42;96710.00;;;21.87;67.52
61035;BME280;46916;40.564;-7.958;2023-06-19T09:37:45;96715.34;;;21.87;67.77
61035;BME280;46916;40.564;-7.958;2023-06-19T09:39:46;96717.00;;;21.88;67.77
61035;BME280;46916;40.564;-7.958;2023-06-19T09:41:50;96719.66;;;21.88;67.93
61035;BME280;46916;40.564;-7.958;2023-06-19T09:43:55;96720.63;;;21.94;68.40
61035;BME280;46916;40.564;-7.958;2023-06-19T09:46:00;96723.66;;;21.97;68.87
61035;BME280;46916;40.564;-7.958;2023-06-19T09:48:02;96716.84;;;22.01;68.63
61035;BME280;46916;40.564;-7.958;2023-06-19T09:50:22;96716.44;;;22.05;68.36
61035;BME280;46916;40.564;-7.958;2023-06-19T09:52:28;96711.44;;;22.08;68.49
61035;BME280;46916;40.564;-7.958;2023-06-19T09:54:36;96712.63;;;22.12;68.59
61035;BME280;46916;40.564;-7.958;2023-06-19T09:56:39;96710.63;;;22.14;68.43
61035;BME280;46916;40.564;-7.958;2023-06-19T09:58:41;96712.47;;;22.14;68.07
61035;BME280;46916;40.564;-7.958;2023-06-19T10:00:42;96717.56;;;22.15;67.60
61035;BME280;46916;40.564;-7.958;2023-06-19T10:02:45;96724.25;;;22.24;68.83
61035;BME280;46916;40.564;-7.958;2023-06-19T10:04:54;96732.19;;;22.31;68.07
61035;BME280;46916;40.564;-7.958;2023-06-19T10:06:55;96731.59;;;22.29;67.55
61035;BME280;46916;40.564;-7.958;2023-06-19T10:09:07;96720.75;;;22.24;66.93
61035;BME280;46916;40.564;-7.958;2023-06-19T10:11:08;96730.41;;;22.25;66.85
61035;BME280;46916;40.564;-7.958;2023-06-19T10:13:13;96727.75;;;22.25;66.54
61035;BME280;46916;40.564;-7.958;2023-06-19T10:15:32;96725.91;;;22.25;66.41
61035;BME280;46916;40.564;-7.958;2023-06-19T10:17:35;96725.66;;;22.27;65.60
61035;BME280;46916;40.564;-7.958;2023-06-19T10:19:36;96727.50;;;22.27;65.16
61035;BME280;46916;40.564;-7.958;2023-06-19T10:21:51;96735.53;;;22.27;65.21
61035;BME280;46916;40.564;-7.958;2023-06-19T10:23:54;96729.38;;;22.26;65.29
61035;BME280;46916;40.564;-7.958;2023-06-19T10:25:58;96733.66;;;22.27;65.20
61035;BME280;46916;40.564;-7.958;2023-06-19T10:28:00;96728.75;;;22.24;65.27
61035;BME280;46916;40.564;-7.958;2023-06-19T10:30:01;96733.09;;;22.25;65.07
61035;BME280;46916;40.564;-7.958;2023-06-19T10:32:02;96727.75;;;22.25;65.42
61035;BME280;46916;40.564;-7.958;2023-06-19T10:34:03;96727.91;;;22.30;65.42
61035;BME280;46916;40.564;-7.958;2023-06-19T10:36:23;96723.13;;;22.32;65.70
61035;BME280;46916;40.564;-7.958;2023-06-19T10:38:27;96716.56;;;22.35;65.33
61035;BME280;46916;40.564;-7.958;2023-06-19T10:40:28;96721.28;;;22.33;64.97
61035;BME280;46916;40.564;-7.958;2023-06-19T10:42:29;96715.59;;;22.29;63.80